sensor_id;sensor_type;location;lat;lon;timestamp;P1;durP1;ratioP1;P2;durP2;ratioP2
4290;SDS011;2159;50.906;7.152;2023-11-21T00:00:40;6.90;;;5.53;;
4290;SDS011;2159;50.906;7.152;2023-11-21T00:03:08;8.80;;;5.60;;
4290;SDS011;2159;50.906;7.152;2023-11-21T00:05:37;9.90;;;5.43;;
4290;SDS011;2159;50.906;7.152;2023-11-21T00:08:07;10.50;;;5.70;;
4290;SDS011;2159;50.906;7.152;2023-11-21T00:10:35;10.87;;;5.83;;
4290;SDS011;2159;50.906;7.152;2023-11-21T00:13:04;7.47;;;5.40;;
4290;SDS011;2159;50.906;7.152;2023-11-21T00:15:33;7.23;;;5.67;;
4290;SDS011;2159;50.906;7.152;2023-11-21T00:18:00;11.90;;;5.80;;
4290;SDS011;2159;50.906;7.152;2023-11-21T00:20:28;9.67;;;6.23;;
4290;SDS011;2159;50.906;7.152;2023-11-21T00:22:56;10.53;;;6.90;;
4290;SDS011;2159;50.906;7.152;2023-11-21T00:25:23;10.67;;;6.90;;
4290;SDS011;2159;50.906;7.152;2023-11-21T00:27:51;11.77;;;6.10;;
4290;SDS011;2159;50.906;7.152;2023-11-21T00:30:18;8.93;;;5.90;;
4290;SDS011;2159;50.906;7.152;2023-11-21T00:32:47;8.53;;;6.40;;
4290;SDS011;2159;50.906;7.152;2023-11-21T00:35:15;11.33;;;6.27;;
4290;SDS011;2159;50.906;7.152;2023-11-21T00:37:42;6.83;;;5.90;;
4290;SDS011;2159;50.906;7.152;2023-11-21T00:40:11;14.17;;;6.67;;
4290;SDS011;2159;50.906;7.152;2023-11-21T00:42:41;10.23;;;6.20;;
4290;SDS011;2159;50.906;7.152;2023-11-21T00:45:10;14.80;;;5.77;;
4290;SDS011;2159;50.906;7.152;2023-11-21T00:47:37;7.87;;;5.63;;
4290;SDS011;2159;50.906;7.152;2023-11-21T00:50:07;10.40;;;5.73;;
4290;SDS011;2159;50.906;7.152;2023-11-21T00:52:35;8.97;;;5.53;;
4290;SDS011;2159;50.906;7.152;2023-11-21T00:55:03;10.97;;;5.57;;
4290;SDS011;2159;50.906;7.152;2023-11-21T00:57:31;8.73;;;5.53;;
4290;SDS011;2159;50.906;7.152;2023-11-21T00:59:58;11.47;;;4.70;;
4290;SDS011;2159;50.906;7.152;2023-11-21T01:02:26;7.90;;;4.70;;
4290;SDS011;2159;50.906;7.152;2023-11-21T01:04:54;15.90;;;4.80;;
4290;SDS011;2159;50.906;7.152;2023-11-21T01:07:22;9.60;;;4.80;;
4290;SDS011;2159;50.906;7.152;2023-11-21T01:09:50;7.37;;;4.70;;
4290;SDS011;2159;50.906;7.152;2023-11-21T01:12:17;6.57;;;4.43;;
4290;SDS011;2159;50.906;7.152;2023-11-21T01:14:45;7.83;;;4.23;;
4290;SDS011;2159;50.906;7.152;2023-11-21T01:17:12;9.93;;;4.10;;
4290;SDS011;2159;50.906;7.152;2023-11-21T01:19:40;6.23;;;4.13;;
4290;SDS011;2159;50.906;7.152;2023-11-21T01:22:07;8.93;;;4.40;;
4290;SDS011;2159;50.906;7.152;2023-11-21T01:24:36;7.77;;;4.10;;
4290;SDS011;2159;50.906;7.152;2023-11-21T01:27:04;6.90;;;4.00;;
4290;SDS011;2159;50.906;7.152;2023-11-21T01:29:32;6.90;;;4.23;;
4290;SDS011;2159;50.906;7.152;2023-11-21T01:32:02;5.90;;;4.50;;
4290;SDS011;2159;50.906;7.152;2023-11-21T01:34:29;10.10;;;4.87;;
4290;SDS011;2159;50.906;7.152;2023-11-21T01:36:57;8.27;;;4.70;;
4290;SDS011;2159;50.906;7.152;2023-11-21T01:39:25;6.03;;;4.37;;
4290;SDS011;2159;50.906;7.152;2023-11-21T01:41:54;6.70;;;4.77;;
4290;SDS011;2159;50.906;7.152;2023-11-21T01:44:21;10.37;;;5.10;;
4290;SDS011;2159;50.906;7.152;2023-11-21T01:46:50;5.80;;;4.00;;
4290;SDS011;2159;50.906;7.152;2023-11-21T01:49:19;11.47;;;4.20;;
4290;SDS011;2159;50.906;7.152;2023-11-21T01:51:48;6.83;;;4.07;;
4290;SDS011;2159;50.906;7.152;2023-11-21T01:54:16;12.60;;;4.40;;
4290;SDS011;2159;50.906;7.152;2023-11-21T01:56:44;7.60;;;4.20;;
4290;SDS011;2159;50.906;7.152;2023-11-21T01:59:15;6.00;;;4.03;;
4290;SDS011;2159;50.906;7.152;2023-11-21T02:01:45;6.53;;;3.83;;
4290;SDS011;2159;50.906;7.152;2023-11-21T02:04:13;8.73;;;3.97;;
4290;SDS011;2159;50.906;7.152;2023-11-21T02:06:41;5.80;;;3.93;;
4290;SDS011;2159;50.906;7.152;2023-11-21T02:09:09;4.77;;;3.73;;
4290;SDS011;2159;50.906;7.152;2023-11-21T02:11:40;5.57;;;3.93;;
4290;SDS011;2159;50.906;7.152;2023-11-21T02:14:08;5.10;;;3.70;;
4290;SDS011;2159;50.906;7.152;2023-11-21T02:16:37;5.57;;;4.00;;
4290;SDS011;2159;50.906;7.152;2023-11-21T02:19:07;10.07;;;4.10;;
4290;SDS011;2159;50.906;7.152;2023-11-21T02:21:37;6.07;;;3.80;;
4290;SDS011;2159;50.906;7.152;2023-11-21T02:24:08;5.80;;;3.60;;
4290;SDS011;2159;50.906;7.152;2023-11-21T02:26:36;7.67;;;4.23;;
4290;SDS011;2159;50.906;7.152;2023-11-21T02:29:03;7.33;;;3.90;;
4290;SDS011;2159;50.906;7.152;2023-11-21T02:31:31;8.83;;;4.40;;
4290;SDS011;2159;50.906;7.152;2023-11-21T02:33:59;5.77;;;3.80;;
4290;SDS011;2159;50.906;7.152;2023-11-21T02:36:27;10.90;;;3.77;;
4290;SDS011;2159;50.906;7.152;2023-11-21T02:38:55;6.83;;;3.70;;
4290;SDS011;2159;50.906;7.152;2023-11-21T02:41:23;8.53;;;3.90;;
4290;SDS011;2159;50.906;7.152;2023-11-21T02:43:52;13.70;;;4.70;;
4290;SDS011;2159;50.906;7.152;2023-11-21T02:46:19;9.70;;;3.63;;
4290;SDS011;2159;50.906;7.152;2023-11-21T02:48:47;4.27;;;3.60;;
4290;SDS011;2159;50.906;7.152;2023-11-21T02:51:14;8.77;;;3.87;;
4290;SDS011;2159;50.906;7.152;2023-11-21T02:53:43;9.50;;;4.30;;
4290;SDS011;2159;50.906;7.152;2023-11-21T02:56:10;6.00;;;3.57;;
4290;SDS011;2159;50.906;7.152;2023-11-21T02:58:40;6.73;;;3.77;;
4290;SDS011;2159;50.906;7.152;2023-11-21T03:01:09;6.93;;;3.90;;
4290;SDS011;2159;50.906;7.152;2023-11-21T03:03:37;4.00;;;3.47;;
4290;SDS011;2159;50.906;7.152;2023-11-21T03:06:06;7.67;;;3.73;;
4290;SDS011;2159;50.906;7.152;2023-11-21T03:08:34;4.43;;;3.73;;
4290;SDS011;2159;50.906;7.152;2023-11-21T03:11:02;5.13;;;3.50;;
4290;SDS011;2159;50.906;7.152;2023-11-21T03:13:30;12.60;;;3.73;;
4290;SDS011;2159;50.906;7.152;2023-11-21T03:15:59;8.80;;;4.13;;
4290;SDS011;2159;50.906;7.152;2023-11-21T03:18:26;4.10;;;3.30;;
4290;SDS011;2159;50.906;7.152;2023-11-21T03:20:55;8.17;;;3.50;;
4290;SDS011;2159;50.906;7.152;2023-11-21T03:23:23;7.27;;;3.70;;
4290;SDS011;2159;50.906;7.152;2023-11-21T03:25:51;10.70;;;3.70;;
4290;SDS011;2159;50.906;7.152;2023-11-21T03:28:18;6.37;;;3.67;;
4290;SDS011;2159;50.906;7.152;2023-11-21T03:30:46;5.03;;;3.57;;
4290;SDS011;2159;50.906;7.152;2023-11-21T03:33:14;5.10;;;3.73;;
4290;SDS011;2159;50.906;7.152;2023-11-21T03:35:42;8.10;;;3.83;;
4290;SDS011;2159;50.906;7.152;2023-11-21T03:38:11;10.37;;;3.97;;
4290;SDS011;2159;50.906;7.152;2023-11-21T03:40:38;7.37;;;4.87;;
4290;SDS011;2159;50.906;7.152;2023-11-21T03:43:06;9.50;;;5.10;;
4290;SDS011;2159;50.906;7.152;2023-11-21T03:45:33;10.67;;;5.47;;
4290;SDS011;2159;50.906;7.152;2023-11-21T03:48:01;9.80;;;5.20;;
4290;SDS011;2159;50.906;7.152;2023-11-21T03:50:30;23.47;;;5.70;;
4290;SDS011;2159;50.906;7.152;2023-11-21T03:52:57;9.87;;;5.77;;
4290;SDS011;2159;50.906;7.152;2023-11-21T03:55:25;9.87;;;5.03;;
4290;SDS011;2159;50.906;7.152;2023-11-21T03:57:53;23.13;;;5.10;;
4290;SDS011;2159;50.906;7.152;2023-11-21T04:00:20;16.27;;;5.50;;
4290;SDS011;2159;50.906;7.152;2023-11-21T04:02:48;9.57;;;4.87;;
4290;SDS011;2159;50.906;7.152;2023-11-21T04:05:17;7.30;;;4.90;;
4290;SDS011;2159;50.906;7.152;2023-11-21T04:07:46;6.80;;;4.60;;
4290;SDS011;2159;50.906;7.152;2023-11-21T04:10:14;7.20;;;5.20;;
4290;SDS011;2159;50.906;7.152;2023-11-21T04:12:42;11.23;;;6.13;;
4290;SDS011;2159;50.906;7.152;2023-11-21T04:15:10;13.40;;;6.60;;
4290;SDS011;2159;50.906;7.152;2023-11-21T04:17:38;13.50;;;7.10;;
4290;SDS011;2159;50.906;7.152;2023-11-21T04:20:06;11.13;;;7.20;;
4290;SDS011;2159;50.906;7.152;2023-11-21T04:22:38;13.33;;;7.10;;
4290;SDS011;2159;50.906;7.152;2023-11-21T04:25:09;13.13;;;7.00;;
4290;SDS011;2159;50.906;7.152;2023-11-21T04:27:38;12.67;;;8.10;;
4290;SDS011;2159;50.906;7.152;2023-11-21T04:30:06;22.60;;;9.23;;
4290;SDS011;2159;50.906;7.152;2023-11-21T04:32:33;17.17;;;8.90;;
4290;SDS011;2159;50.906;7.152;2023-11-21T04:35:01;18.20;;;8.50;;
4290;SDS011;2159;50.906;7.152;2023-11-21T04:37:30;22.37;;;10.20;;
4290;SDS011;2159;50.906;7.152;2023-11-21T04:39:57;17.47;;;9.20;;
4290;SDS011;2159;50.906;7.152;2023-11-21T04:42:26;17.53;;;9.10;;
4290;SDS011;2159;50.906;7.152;2023-11-21T04:44:55;17.17;;;9.37;;
4290;SDS011;2159;50.906;7.152;2023-11-21T04:47:23;16.60;;;9.20;;
4290;SDS011;2159;50.906;7.152;2023-11-21T04:49:50;13.80;;;7.63;;
4290;SDS011;2159;50.906;7.152;2023-11-21T04:52:18;16.07;;;7.80;;
4290;SDS011;2159;50.906;7.152;2023-11-21T04:54:46;16.53;;;7.90;;
4290;SDS011;2159;50.906;7.152;2023-11-21T04:57:14;15.63;;;7.80;;
4290;SDS011;2159;50.906;7.152;2023-11-21T04:59:45;15.77;;;7.90;;
4290;SDS011;2159;50.906;7.152;2023-11-21T05:02:13;18.63;;;7.40;;
4290;SDS011;2159;50.906;7.152;2023-11-21T05:04:58;13.40;;;7.30;;
4290;SDS011;2159;50.906;7.152;2023-11-21T05:07:26;16.90;;;6.70;;
4290;SDS011;2159;50.906;7.152;2023-11-21T05:09:57;12.67;;;6.50;;
4290;SDS011;2159;50.906;7.152;2023-11-21T05:12:25;15.60;;;7.30;;
4290;SDS011;2159;50.906;7.152;2023-11-21T05:14:54;16.50;;;7.97;;
4290;SDS011;2159;50.906;7.152;2023-11-21T05:17:21;14.10;;;6.90;;
4290;SDS011;2159;50.906;7.152;2023-11-21T05:19:49;16.33;;;7.93;;
4290;SDS011;2159;50.906;7.152;2023-11-21T05:22:17;16.07;;;7.90;;
4290;SDS011;2159;50.906;7.152;2023-11-21T05:24:46;15.57;;;8.70;;
4290;SDS011;2159;50.906;7.152;2023-11-21T05:27:13;13.10;;;7.50;;
4290;SDS011;2159;50.906;7.152;2023-11-21T05:29:42;13.10;;;7.07;;
4290;SDS011;2159;50.906;7.152;2023-11-21T05:32:11;19.27;;;8.00;;
4290;SDS011;2159;50.906;7.152;2023-11-21T05:34:39;12.07;;;8.00;;
4290;SDS011;2159;50.906;7.152;2023-11-21T05:37:07;13.37;;;8.00;;
4290;SDS011;2159;50.906;7.152;2023-11-21T05:39:34;12.77;;;7.97;;
4290;SDS011;2159;50.906;7.152;2023-11-21T05:42:02;20.23;;;9.10;;
4290;SDS011;2159;50.906;7.152;2023-11-21T05:44:30;20.13;;;8.47;;
4290;SDS011;2159;50.906;7.152;2023-11-21T05:46:57;13.20;;;8.13;;
4290;SDS011;2159;50.906;7.152;2023-11-21T05:49:26;17.27;;;8.20;;
4290;SDS011;2159;50.906;7.152;2023-11-21T05:51:56;20.23;;;8.90;;
4290;SDS011;2159;50.906;7.152;2023-11-21T05:54:26;13.60;;;8.10;;
4290;SDS011;2159;50.906;7.152;2023-11-21T05:56:54;16.90;;;8.30;;
4290;SDS011;2159;50.906;7.152;2023-11-21T05:59:22;17.30;;;8.07;;
4290;SDS011;2159;50.906;7.152;2023-11-21T06:01:49;15.20;;;8.40;;
4290;SDS011;2159;50.906;7.152;2023-11-21T06:04:17;14.10;;;8.10;;
4290;SDS011;2159;50.906;7.152;2023-11-21T06:06:46;15.47;;;8.17;;
4290;SDS011;2159;50.906;7.152;2023-11-21T06:09:13;16.23;;;8.10;;
4290;SDS011;2159;50.906;7.152;2023-11-21T06:11:41;14.23;;;8.07;;
4290;SDS011;2159;50.906;7.152;2023-11-21T06:14:08;16.07;;;7.87;;
4290;SDS011;2159;50.906;7.152;2023-11-21T06:16:37;21.60;;;8.20;;
4290;SDS011;2159;50.906;7.152;2023-11-21T06:19:06;11.40;;;7.20;;
4290;SDS011;2159;50.906;7.152;2023-11-21T06:21:34;14.70;;;7.80;;
4290;SDS011;2159;50.906;7.152;2023-11-21T06:24:03;15.10;;;8.23;;
4290;SDS011;2159;50.906;7.152;2023-11-21T06:26:30;14.50;;;7.40;;
4290;SDS011;2159;50.906;7.152;2023-11-21T06:28:58;15.27;;;8.03;;
4290;SDS011;2159;50.906;7.152;2023-11-21T06:31:25;14.20;;;7.53;;
4290;SDS011;2159;50.906;7.152;2023-11-21T06:33:53;15.30;;;7.33;;
4290;SDS011;2159;50.906;7.152;2023-11-21T06:36:21;12.40;;;7.07;;
4290;SDS011;2159;50.906;7.152;2023-11-21T06:38:48;15.23;;;8.00;;
4290;SDS011;2159;50.906;7.152;2023-11-21T06:41:17;18.23;;;8.07;;
4290;SDS011;2159;50.906;7.152;2023-11-21T06:43:44;17.40;;;8.20;;
4290;SDS011;2159;50.906;7.152;2023-11-21T06:46:13;17.53;;;8.30;;
4290;SDS011;2159;50.906;7.152;2023-11-21T06:48:42;15.53;;;8.47;;
4290;SDS011;2159;50.906;7.152;2023-11-21T06:51:10;14.57;;;8.03;;
4290;SDS011;2159;50.906;7.152;2023-11-21T06:53:37;15.47;;;8.37;;
4290;SDS011;2159;50.906;7.152;2023-11-21T06:56:14;15.00;;;8.10;;
4290;SDS011;2159;50.906;7.152;2023-11-21T06:58:43;17.10;;;8.57;;
4290;SDS011;2159;50.906;7.152;2023-11-21T07:01:11;15.30;;;8.20;;
4290;SDS011;2159;50.906;7.152;2023-11-21T07:03:39;16.60;;;7.63;;
4290;SDS011;2159;50.906;7.152;2023-11-21T07:06:08;17.63;;;8.70;;
4290;SDS011;2159;50.906;7.152;2023-11-21T07:08:35;15.67;;;8.00;;
4290;SDS011;2159;50.906;7.152;2023-11-21T07:11:03;19.20;;;8.93;;
4290;SDS011;2159;50.906;7.152;2023-11-21T07:13:31;14.40;;;8.33;;
4290;SDS011;2159;50.906;7.152;2023-11-21T07:16:00;19.53;;;9.60;;
4290;SDS011;2159;50.906;7.152;2023-11-21T07:18:27;22.70;;;10.80;;
4290;SDS011;2159;50.906;7.152;2023-11-21T07:20:55;21.60;;;11.00;;
4290;SDS011;2159;50.906;7.152;2023-11-21T07:23:22;22.10;;;10.57;;
4290;SDS011;2159;50.906;7.152;2023-11-21T07:25:50;31.80;;;11.70;;
4290;SDS011;2159;50.906;7.152;2023-11-21T07:28:17;22.17;;;10.57;;
4290;SDS011;2159;50.906;7.152;2023-11-21T07:30:45;20.17;;;9.90;;
4290;SDS011;2159;50.906;7.152;2023-11-21T07:33:13;22.03;;;10.50;;
4290;SDS011;2159;50.906;7.152;2023-11-21T07:35:41;24.20;;;10.87;;
4290;SDS011;2159;50.906;7.152;2023-11-21T07:38:08;24.77;;;11.87;;
4290;SDS011;2159;50.906;7.152;2023-11-21T07:40:36;31.03;;;12.80;;
4290;SDS011;2159;50.906;7.152;2023-11-21T07:43:03;31.53;;;12.37;;
4290;SDS011;2159;50.906;7.152;2023-11-21T07:45:31;29.73;;;12.50;;
4290;SDS011;2159;50.906;7.152;2023-11-21T07:47:59;29.50;;;12.43;;
4290;SDS011;2159;50.906;7.152;2023-11-21T07:50:28;29.33;;;12.90;;
4290;SDS011;2159;50.906;7.152;2023-11-21T07:52:55;31.83;;;13.83;;
4290;SDS011;2159;50.906;7.152;2023-11-21T07:55:24;29.93;;;12.80;;
4290;SDS011;2159;50.906;7.152;2023-11-21T07:57:51;32.30;;;13.37;;
4290;SDS011;2159;50.906;7.152;2023-11-21T08:00:19;31.30;;;14.23;;
4290;SDS011;2159;50.906;7.152;2023-11-21T08:02:47;33.37;;;14.03;;
4290;SDS011;2159;50.906;7.152;2023-11-21T08:05:15;32.70;;;14.07;;
4290;SDS011;2159;50.906;7.152;2023-11-21T08:07:54;36.17;;;14.27;;
4290;SDS011;2159;50.906;7.152;2023-11-21T08:10:22;32.40;;;14.30;;
4290;SDS011;2159;50.906;7.152;2023-11-21T08:12:49;31.17;;;14.13;;
4290;SDS011;2159;50.906;7.152;2023-11-21T08:15:17;38.30;;;15.00;;
4290;SDS011;2159;50.906;7.152;2023-11-21T08:17:45;41.87;;;16.57;;
4290;SDS011;2159;50.906;7.152;2023-11-21T08:20:13;35.27;;;15.80;;
4290;SDS011;2159;50.906;7.152;2023-11-21T08:22:43;33.33;;;13.93;;
4290;SDS011;2159;50.906;7.152;2023-11-21T08:25:12;33.50;;;15.20;;
4290;SDS011;2159;50.906;7.152;2023-11-21T08:27:39;33.67;;;14.27;;
4290;SDS011;2159;50.906;7.152;2023-11-21T08:30:07;34.03;;;14.47;;
4290;SDS011;2159;50.906;7.152;2023-11-21T08:32:35;31.87;;;14.43;;
4290;SDS011;2159;50.906;7.152;2023-11-21T08:35:02;33.10;;;14.70;;
4290;SDS011;2159;50.906;7.152;2023-11-21T08:37:30;38.07;;;15.33;;
4290;SDS011;2159;50.906;7.152;2023-11-21T08:39:59;39.07;;;15.73;;
4290;SDS011;2159;50.906;7.152;2023-11-21T08:42:28;49.23;;;16.80;;
4290;SDS011;2159;50.906;7.152;2023-11-21T08:44:56;38.03;;;15.70;;
4290;SDS011;2159;50.906;7.152;2023-11-21T08:47:24;36.97;;;15.80;;
4290;SDS011;2159;50.906;7.152;2023-11-21T08:49:52;39.20;;;16.33;;
4290;SDS011;2159;50.906;7.152;2023-11-21T08:52:21;46.13;;;16.80;;
4290;SDS011;2159;50.906;7.152;2023-11-21T08:54:49;42.53;;;16.03;;
4290;SDS011;2159;50.906;7.152;2023-11-21T08:57:22;37.57;;;16.30;;
4290;SDS011;2159;50.906;7.152;2023-11-21T08:59:50;42.97;;;16.17;;
4290;SDS011;2159;50.906;7.152;2023-11-21T09:02:21;39.37;;;16.13;;
4290;SDS011;2159;50.906;7.152;2023-11-21T09:04:49;48.70;;;15.80;;
4290;SDS011;2159;50.906;7.152;2023-11-21T09:07:18;45.50;;;15.97;;
4290;SDS011;2159;50.906;7.152;2023-11-21T09:09:47;36.77;;;16.10;;
4290;SDS011;2159;50.906;7.152;2023-11-21T09:12:15;43.17;;;16.30;;
4290;SDS011;2159;50.906;7.152;2023-11-21T09:14:43;42.47;;;16.43;;
4290;SDS011;2159;50.906;7.152;2023-11-21T09:17:12;38.87;;;16.10;;
4290;SDS011;2159;50.906;7.152;2023-11-21T09:19:40;39.90;;;16.90;;
4290;SDS011;2159;50.906;7.152;2023-11-21T09:22:09;46.87;;;17.03;;
4290;SDS011;2159;50.906;7.152;2023-11-21T09:24:37;45.83;;;16.53;;
4290;SDS011;2159;50.906;7.152;2023-11-21T09:27:05;50.40;;;19.10;;
4290;SDS011;2159;50.906;7.152;2023-11-21T09:29:33;49.27;;;18.03;;
4290;SDS011;2159;50.906;7.152;2023-11-21T09:32:00;48.33;;;18.20;;
4290;SDS011;2159;50.906;7.152;2023-11-21T09:34:30;43.33;;;17.53;;
4290;SDS011;2159;50.906;7.152;2023-11-21T09:36:58;46.87;;;16.93;;
4290;SDS011;2159;50.906;7.152;2023-11-21T09:39:25;46.10;;;18.20;;
4290;SDS011;2159;50.906;7.152;2023-11-21T09:41:56;41.70;;;18.57;;
4290;SDS011;2159;50.906;7.152;2023-11-21T09:44:26;54.60;;;19.53;;
4290;SDS011;2159;50.906;7.152;2023-11-21T09:46:57;40.77;;;18.40;;
4290;SDS011;2159;50.906;7.152;2023-11-21T09:49:26;49.73;;;19.13;;
4290;SDS011;2159;50.906;7.152;2023-11-21T09:51:56;48.10;;;17.80;;
4290;SDS011;2159;50.906;7.152;2023-11-21T09:54:25;46.30;;;19.70;;
4290;SDS011;2159;50.906;7.152;2023-11-21T09:56:55;52.43;;;20.43;;
4290;SDS011;2159;50.906;7.152;2023-11-21T09:59:24;45.50;;;20.40;;
4290;SDS011;2159;50.906;7.152;2023-11-21T10:01:51;47.93;;;20.80;;
4290;SDS011;2159;50.906;7.152;2023-11-21T10:04:19;47.00;;;20.57;;
4290;SDS011;2159;50.906;7.152;2023-11-21T10:06:47;50.60;;;18.70;;
4290;SDS011;2159;50.906;7.152;2023-11-21T10:09:16;52.70;;;19.60;;
4290;SDS011;2159;50.906;7.152;2023-11-21T10:11:46;47.57;;;18.47;;
4290;SDS011;2159;50.906;7.152;2023-11-21T10:14:14;49.50;;;20.73;;
4290;SDS011;2159;50.906;7.152;2023-11-21T10:16:46;53.43;;;19.90;;
4290;SDS011;2159;50.906;7.152;2023-11-21T10:19:15;46.37;;;19.67;;
4290;SDS011;2159;50.906;7.152;2023-11-21T10:21:43;63.10;;;21.07;;
4290;SDS011;2159;50.906;7.152;2023-11-21T10:24:10;50.47;;;20.03;;
4290;SDS011;2159;50.906;7.152;2023-11-21T10:26:40;47.17;;;21.23;;
4290;SDS011;2159;50.906;7.152;2023-11-21T10:29:18;54.93;;;21.50;;
4290;SDS011;2159;50.906;7.152;2023-11-21T10:31:48;56.50;;;21.50;;
4290;SDS011;2159;50.906;7.152;2023-11-21T10:34:18;53.63;;;21.37;;
4290;SDS011;2159;50.906;7.152;2023-11-21T10:36:45;56.57;;;22.33;;
4290;SDS011;2159;50.906;7.152;2023-11-21T10:39:14;60.73;;;22.27;;
4290;SDS011;2159;50.906;7.152;2023-11-21T10:41:45;57.13;;;22.77;;
4290;SDS011;2159;50.906;7.152;2023-11-21T10:44:13;59.03;;;23.77;;
4290;SDS011;2159;50.906;7.152;2023-11-21T10:46:46;63.07;;;24.83;;
4290;SDS011;2159;50.906;7.152;2023-11-21T10:49:17;56.67;;;22.90;;
4290;SDS011;2159;50.906;7.152;2023-11-21T10:51:44;55.13;;;22.90;;
4290;SDS011;2159;50.906;7.152;2023-11-21T10:54:12;56.00;;;22.00;;
4290;SDS011;2159;50.906;7.152;2023-11-21T10:56:39;57.33;;;23.30;;
4290;SDS011;2159;50.906;7.152;2023-11-21T10:59:10;57.83;;;22.93;;
4290;SDS011;2159;50.906;7.152;2023-11-21T11:01:41;55.07;;;23.37;;
4290;SDS011;2159;50.906;7.152;2023-11-21T11:04:09;58.90;;;22.60;;
4290;SDS011;2159;50.906;7.152;2023-11-21T11:06:43;56.67;;;21.90;;
4290;SDS011;2159;50.906;7.152;2023-11-21T11:09:11;52.80;;;22.23;;
4290;SDS011;2159;50.906;7.152;2023-11-21T11:11:39;52.10;;;21.80;;
4290;SDS011;2159;50.906;7.152;2023-11-21T11:14:08;53.83;;;22.63;;
4290;SDS011;2159;50.906;7.152;2023-11-21T11:16:38;52.20;;;20.93;;
4290;SDS011;2159;50.906;7.152;2023-11-21T11:19:07;58.57;;;23.07;;
4290;SDS011;2159;50.906;7.152;2023-11-21T11:21:37;48.97;;;21.50;;
4290;SDS011;2159;50.906;7.152;2023-11-21T11:27:01;51.00;;;21.40;;
4290;SDS011;2159;50.906;7.152;2023-11-21T11:29:35;55.80;;;21.27;;
4290;SDS011;2159;50.906;7.152;2023-11-21T11:32:10;48.73;;;20.77;;
4290;SDS011;2159;50.906;7.152;2023-11-21T11:34:41;53.47;;;22.43;;
4290;SDS011;2159;50.906;7.152;2023-11-21T11:37:11;52.83;;;23.70;;
4290;SDS011;2159;50.906;7.152;2023-11-21T11:39:40;60.43;;;23.00;;
4290;SDS011;2159;50.906;7.152;2023-11-21T11:42:12;57.63;;;23.00;;
4290;SDS011;2159;50.906;7.152;2023-11-21T11:44:49;51.63;;;21.60;;
4290;SDS011;2159;50.906;7.152;2023-11-21T11:47:21;53.33;;;23.30;;
4290;SDS011;2159;50.906;7.152;2023-11-21T11:50:03;47.73;;;22.10;;
4290;SDS011;2159;50.906;7.152;2023-11-21T11:52:38;52.77;;;22.83;;
4290;SDS011;2159;50.906;7.152;2023-11-21T11:55:06;52.20;;;22.30;;
4290;SDS011;2159;50.906;7.152;2023-11-21T11:57:36;61.03;;;23.83;;
4290;SDS011;2159;50.906;7.152;2023-11-21T12:00:08;48.43;;;22.10;;
4290;SDS011;2159;50.906;7.152;2023-11-21T12:02:38;55.90;;;22.67;;
4290;SDS011;2159;50.906;7.152;2023-11-21T12:05:09;47.60;;;20.87;;
4290;SDS011;2159;50.906;7.152;2023-11-21T12:07:41;47.17;;;20.70;;
4290;SDS011;2159;50.906;7.152;2023-11-21T12:10:11;42.27;;;20.27;;
4290;SDS011;2159;50.906;7.152;2023-11-21T12:12:41;45.53;;;20.10;;
4290;SDS011;2159;50.906;7.152;2023-11-21T12:15:08;47.43;;;20.20;;
4290;SDS011;2159;50.906;7.152;2023-11-21T12:17:37;39.67;;;20.07;;
4290;SDS011;2159;50.906;7.152;2023-11-21T12:20:06;43.80;;;19.70;;
4290;SDS011;2159;50.906;7.152;2023-11-21T12:22:43;52.43;;;21.83;;
4290;SDS011;2159;50.906;7.152;2023-11-21T12:25:13;49.00;;;21.07;;
4290;SDS011;2159;50.906;7.152;2023-11-21T12:27:42;48.57;;;19.97;;
4290;SDS011;2159;50.906;7.152;2023-11-21T12:30:11;48.00;;;20.80;;
4290;SDS011;2159;50.906;7.152;2023-11-21T12:32:42;42.60;;;18.97;;
4290;SDS011;2159;50.906;7.152;2023-11-21T12:35:11;43.90;;;18.80;;
4290;SDS011;2159;50.906;7.152;2023-11-21T12:37:39;47.60;;;20.37;;
4290;SDS011;2159;50.906;7.152;2023-11-21T12:40:09;41.63;;;19.10;;
4290;SDS011;2159;50.906;7.152;2023-11-21T12:42:39;45.03;;;20.27;;
4290;SDS011;2159;50.906;7.152;2023-11-21T12:45:11;38.53;;;17.47;;
4290;SDS011;2159;50.906;7.152;2023-11-21T12:47:46;41.03;;;18.67;;
4290;SDS011;2159;50.906;7.152;2023-11-21T12:50:15;40.73;;;18.50;;
4290;SDS011;2159;50.906;7.152;2023-11-21T12:52:48;39.40;;;18.00;;
4290;SDS011;2159;50.906;7.152;2023-11-21T12:55:16;42.20;;;18.13;;
4290;SDS011;2159;50.906;7.152;2023-11-21T12:57:44;45.63;;;19.70;;
4290;SDS011;2159;50.906;7.152;2023-11-21T13:00:12;40.70;;;18.17;;
4290;SDS011;2159;50.906;7.152;2023-11-21T13:02:53;41.10;;;17.47;;
4290;SDS011;2159;50.906;7.152;2023-11-21T13:05:26;42.60;;;17.83;;
4290;SDS011;2159;50.906;7.152;2023-11-21T13:07:54;36.77;;;17.37;;
4290;SDS011;2159;50.906;7.152;2023-11-21T13:10:23;39.83;;;17.33;;
4290;SDS011;2159;50.906;7.152;2023-11-21T13:12:53;35.60;;;16.70;;
4290;SDS011;2159;50.906;7.152;2023-11-21T13:15:21;35.80;;;16.03;;
4290;SDS011;2159;50.906;7.152;2023-11-21T13:17:48;36.40;;;15.70;;
4290;SDS011;2159;50.906;7.152;2023-11-21T13:20:17;38.20;;;16.80;;
4290;SDS011;2159;50.906;7.152;2023-11-21T13:22:48;42.00;;;17.00;;
4290;SDS011;2159;50.906;7.152;2023-11-21T13:25:16;33.07;;;15.00;;
4290;SDS011;2159;50.906;7.152;2023-11-21T13:27:45;34.10;;;15.30;;
4290;SDS011;2159;50.906;7.152;2023-11-21T13:30:13;36.20;;;15.00;;
4290;SDS011;2159;50.906;7.152;2023-11-21T13:32:43;31.00;;;14.87;;
4290;SDS011;2159;50.906;7.152;2023-11-21T13:35:12;33.10;;;15.30;;
4290;SDS011;2159;50.906;7.152;2023-11-21T13:37:48;33.13;;;14.77;;
4290;SDS011;2159;50.906;7.152;2023-11-21T13:40:21;33.43;;;15.63;;
4290;SDS011;2159;50.906;7.152;2023-11-21T13:42:52;37.70;;;15.00;;
4290;SDS011;2159;50.906;7.152;2023-11-21T13:45:25;33.70;;;15.17;;
4290;SDS011;2159;50.906;7.152;2023-11-21T13:47:54;35.10;;;14.53;;
4290;SDS011;2159;50.906;7.152;2023-11-21T13:50:24;39.80;;;14.63;;
4290;SDS011;2159;50.906;7.152;2023-11-21T13:52:57;35.70;;;14.73;;
4290;SDS011;2159;50.906;7.152;2023-11-21T13:55:29;35.50;;;14.23;;
4290;SDS011;2159;50.906;7.152;2023-11-21T13:57:56;32.10;;;14.30;;
4290;SDS011;2159;50.906;7.152;2023-11-21T14:00:25;31.90;;;13.80;;
4290;SDS011;2159;50.906;7.152;2023-11-21T14:03:07;29.80;;;14.10;;
4290;SDS011;2159;50.906;7.152;2023-11-21T14:05:44;35.40;;;14.83;;
4290;SDS011;2159;50.906;7.152;2023-11-21T14:08:14;30.03;;;13.80;;
4290;SDS011;2159;50.906;7.152;2023-11-21T14:10:42;30.50;;;14.07;;
4290;SDS011;2159;50.906;7.152;2023-11-21T14:13:13;33.10;;;13.80;;
4290;SDS011;2159;50.906;7.152;2023-11-21T14:15:42;37.80;;;13.13;;
4290;SDS011;2159;50.906;7.152;2023-11-21T14:18:12;24.80;;;12.80;;
4290;SDS011;2159;50.906;7.152;2023-11-21T14:20:43;38.90;;;13.87;;
4290;SDS011;2159;50.906;7.152;2023-11-21T14:23:11;29.07;;;13.07;;
4290;SDS011;2159;50.906;7.152;2023-11-21T14:25:39;32.47;;;12.30;;
4290;SDS011;2159;50.906;7.152;2023-11-21T14:28:08;33.40;;;13.07;;
4290;SDS011;2159;50.906;7.152;2023-11-21T14:30:37;26.13;;;12.43;;
4290;SDS011;2159;50.906;7.152;2023-11-21T14:33:06;29.17;;;13.77;;
4290;SDS011;2159;50.906;7.152;2023-11-21T14:35:34;28.07;;;12.53;;
4290;SDS011;2159;50.906;7.152;2023-11-21T14:38:02;30.77;;;12.60;;
4290;SDS011;2159;50.906;7.152;2023-11-21T14:40:31;29.43;;;12.90;;
4290;SDS011;2159;50.906;7.152;2023-11-21T14:43:01;32.77;;;13.10;;
4290;SDS011;2159;50.906;7.152;2023-11-21T14:45:31;30.73;;;14.27;;
4290;SDS011;2159;50.906;7.152;2023-11-21T14:47:59;32.53;;;13.23;;
4290;SDS011;2159;50.906;7.152;2023-11-21T14:50:34;32.13;;;13.70;;
4290;SDS011;2159;50.906;7.152;2023-11-21T14:53:16;32.03;;;13.13;;
4290;SDS011;2159;50.906;7.152;2023-11-21T14:55:51;31.37;;;13.60;;
4290;SDS011;2159;50.906;7.152;2023-11-21T14:58:25;36.03;;;13.70;;
4290;SDS011;2159;50.906;7.152;2023-11-21T15:00:54;32.67;;;13.07;;
4290;SDS011;2159;50.906;7.152;2023-11-21T15:03:24;31.47;;;14.07;;
4290;SDS011;2159;50.906;7.152;2023-11-21T15:06:09;35.37;;;14.00;;
4290;SDS011;2159;50.906;7.152;2023-11-21T15:08:53;34.60;;;13.70;;
4290;SDS011;2159;50.906;7.152;2023-11-21T15:11:26;34.67;;;13.27;;